sensor_id;sensor_type;location;lat;lon;timestamp;temperature;humidity
3940;DHT22;1984;48.312;9.244;2023-04-03T00:01:02;3.00;99.90
3940;DHT22;1984;48.312;9.244;2023-04-03T00:03:28;2.90;99.90
3940;DHT22;1984;48.312;9.244;2023-04-03T00:05:53;2.90;99.90
3940;DHT22;1984;48.312;9.244;2023-04-03T00:08:20;2.80;99.90
3940;DHT22;1984;48.312;9.244;2023-04-03T00:10:45;2.80;99.90
3940;DHT22;1984;48.312;9.244;2023-04-03T00:13:11;2.80;99.90
3940;DHT22;1984;48.312;9.244;2023-04-03T00:15:38;2.80;99.90
3940;DHT22;1984;48.312;9.244;2023-04-03T00:18:05;2.80;99.90
3940;DHT22;1984;48.312;9.244;2023-04-03T00:20:30;2.80;99.90
3940;DHT22;1984;48.312;9.244;2023-04-03T00:22:56;2.80;99.90
3940;DHT22;1984;48.312;9.244;2023-04-03T00:25:22;2.80;99.90
3940;DHT22;1984;48.312;9.244;2023-04-03T00:27:47;2.80;99.90
3940;DHT22;1984;48.312;9.244;2023-04-03T00:30:15;2.80;99.90
3940;DHT22;1984;48.312;9.244;2023-04-03T00:32:41;2.80;99.90
3940;DHT22;1984;48.312;9.244;2023-04-03T00:35:07;2.90;99.90
3940;DHT22;1984;48.312;9.244;2023-04-03T00:37:33;2.90;99.90
3940;DHT22;1984;48.312;9.244;2023-04-03T00:39:58;2.90;99.90
3940;DHT22;1984;48.312;9.244;2023-04-03T00:42:24;2.80;99.90
3940;DHT22;1984;48.312;9.244;2023-04-03T00:47:22;2.90;99.90
3940;DHT22;1984;48.312;9.244;2023-04-03T00:49:48;2.90;99.90
3940;DHT22;1984;48.312;9.244;2023-04-03T00:52:18;3.00;99.90
3940;DHT22;1984;48.312;9.244;2023-04-03T00:54:47;3.10;99.90
3940;DHT22;1984;48.312;9.244;2023-04-03T00:57:14;3.10;99.90
3940;DHT22;1984;48.312;9.244;2023-04-03T00:59:44;3.10;99.90
3940;DHT22;1984;48.312;9.244;2023-04-03T01:02:11;3.00;99.90
3940;DHT22;1984;48.312;9.244;2023-04-03T01:04:40;2.90;99.90
3940;DHT22;1984;48.312;9.244;2023-04-03T01:07:10;2.70;99.90
3940;DHT22;1984;48.312;9.244;2023-04-03T01:09:37;2.70;99.90
3940;DHT22;1984;48.312;9.244;2023-04-03T01:12:28;2.70;99.90
3940;DHT22;1984;48.312;9.244;2023-04-03T01:15:00;2.80;99.90
3940;DHT22;1984;48.312;9.244;2023-04-03T01:17:37;2.90;99.90
3940;DHT22;1984;48.312;9.244;2023-04-03T01:25:26;2.90;99.90
3940;DHT22;1984;48.312;9.244;2023-04-03T01:27:52;2.90;99.90
3940;DHT22;1984;48.312;9.244;2023-04-03T01:30:20;2.80;99.90
3940;DHT22;1984;48.312;9.244;2023-04-03T01:32:46;2.80;99.90
3940;DHT22;1984;48.312;9.244;2023-04-03T01:35:12;2.80;99.90
3940;DHT22;1984;48.312;9.244;2023-04-03T01:37:37;2.90;99.90
3940;DHT22;1984;48.312;9.244;2023-04-03T01:40:03;2.80;99.90
3940;DHT22;1984;48.312;9.244;2023-04-03T01:42:29;2.80;99.90
3940;DHT22;1984;48.312;9.244;2023-04-03T01:44:55;2.70;99.90
3940;DHT22;1984;48.312;9.244;2023-04-03T01:47:21;2.70;99.90
3940;DHT22;1984;48.312;9.244;2023-04-03T01:49:47;2.70;99.90
3940;DHT22;1984;48.312;9.244;2023-04-03T01:52:13;2.70;99.90
3940;DHT22;1984;48.312;9.244;2023-04-03T01:54:38;2.60;99.90
3940;DHT22;1984;48.312;9.244;2023-04-03T01:57:04;2.60;99.90
3940;DHT22;1984;48.312;9.244;2023-04-03T01:59:29;2.50;99.90
3940;DHT22;1984;48.312;9.244;2023-04-03T02:01:55;2.50;99.90
3940;DHT22;1984;48.312;9.244;2023-04-03T02:04:21;2.50;99.90
3940;DHT22;1984;48.312;9.244;2023-04-03T02:06:46;2.40;99.90
3940;DHT22;1984;48.312;9.244;2023-04-03T02:09:12;2.40;99.90
3940;DHT22;1984;48.312;9.244;2023-04-03T02:11:37;2.30;99.90
3940;DHT22;1984;48.312;9.244;2023-04-03T02:14:03;2.30;99.90
3940;DHT22;1984;48.312;9.244;2023-04-03T02:16:28;2.40;99.90
3940;DHT22;1984;48.312;9.244;2023-04-03T02:18:54;2.30;99.90
3940;DHT22;1984;48.312;9.244;2023-04-03T02:21:20;2.30;99.90
3940;DHT22;1984;48.312;9.244;2023-04-03T02:23:45;2.30;99.90
3940;DHT22;1984;48.312;9.244;2023-04-03T02:26:12;2.30;99.90
3940;DHT22;1984;48.312;9.244;2023-04-03T02:28:39;2.20;99.90
3940;DHT22;1984;48.312;9.244;2023-04-03T02:31:05;2.20;99.90
3940;DHT22;1984;48.312;9.244;2023-04-03T02:33:32;2.20;99.90
3940;DHT22;1984;48.312;9.244;2023-04-03T02:35:58;2.10;99.90
3940;DHT22;1984;48.312;9.244;2023-04-03T02:38:24;2.20;99.90
3940;DHT22;1984;48.312;9.244;2023-04-03T02:40:50;2.20;99.90
3940;DHT22;1984;48.312;9.244;2023-04-03T02:43:17;2.10;99.90
3940;DHT22;1984;48.312;9.244;2023-04-03T02:45:43;2.10;99.90
3940;DHT22;1984;48.312;9.244;2023-04-03T02:48:09;2.10;99.90
3940;DHT22;1984;48.312;9.244;2023-04-03T02:50:34;2.10;99.90
3940;DHT22;1984;48.312;9.244;2023-04-03T02:53:00;2.10;99.90
3940;DHT22;1984;48.312;9.244;2023-04-03T02:55:25;2.20;99.90
3940;DHT22;1984;48.312;9.244;2023-04-03T02:57:51;2.20;99.90
3940;DHT22;1984;48.312;9.244;2023-04-03T03:00:17;2.10;99.90
3940;DHT22;1984;48.312;9.244;2023-04-03T03:02:42;2.10;99.90
3940;DHT22;1984;48.312;9.244;2023-04-03T03:05:08;2.10;99.90
3940;DHT22;1984;48.312;9.244;2023-04-03T03:07:34;2.00;99.90
3940;DHT22;1984;48.312;9.244;2023-04-03T03:09:59;2.00;99.90
3940;DHT22;1984;48.312;9.244;2023-04-03T03:12:25;1.90;99.90
3940;DHT22;1984;48.312;9.244;2023-04-03T03:14:50;1.80;99.90
3940;DHT22;1984;48.312;9.244;2023-04-03T03:17:16;1.80;99.90
3940;DHT22;1984;48.312;9.244;2023-04-03T03:19:42;1.80;99.90
3940;DHT22;1984;48.312;9.244;2023-04-03T03:22:08;1.80;99.90
3940;DHT22;1984;48.312;9.244;2023-04-03T03:24:33;1.80;99.90
3940;DHT22;1984;48.312;9.244;2023-04-03T03:26:59;1.80;99.90
3940;DHT22;1984;48.312;9.244;2023-04-03T03:29:24;1.80;99.90
3940;DHT22;1984;48.312;9.244;2023-04-03T03:31:50;1.80;99.90
3940;DHT22;1984;48.312;9.244;2023-04-03T03:34:15;1.70;99.90
3940;DHT22;1984;48.312;9.244;2023-04-03T03:36:41;1.70;99.90
3940;DHT22;1984;48.312;9.244;2023-04-03T03:39:07;1.70;99.90
3940;DHT22;1984;48.312;9.244;2023-04-03T03:41:32;1.70;99.90
3940;DHT22;1984;48.312;9.244;2023-04-03T03:43:58;1.70;99.90
3940;DHT22;1984;48.312;9.244;2023-04-03T03:46:23;1.70;99.90
3940;DHT22;1984;48.312;9.244;2023-04-03T03:48:49;1.80;99.90
3940;DHT22;1984;48.312;9.244;2023-04-03T03:51:14;1.80;99.90
3940;DHT22;1984;48.312;9.244;2023-04-03T03:53:40;1.80;99.90
3940;DHT22;1984;48.312;9.244;2023-04-03T03:56:06;1.80;99.90
3940;DHT22;1984;48.312;9.244;2023-04-03T03:58:32;1.90;99.90
3940;DHT22;1984;48.312;9.244;2023-04-03T04:01:01;1.90;99.90
3940;DHT22;1984;48.312;9.244;2023-04-03T04:03:27;1.80;99.90
3940;DHT22;1984;48.312;9.244;2023-04-03T04:05:53;1.80;99.90
3940;DHT22;1984;48.312;9.244;2023-04-03T04:08:18;1.80;99.90
3940;DHT22;1984;48.312;9.244;2023-04-03T04:10:44;1.80;99.90
3940;DHT22;1984;48.312;9.244;2023-04-03T04:13:10;1.80;99.90
3940;DHT22;1984;48.312;9.244;2023-04-03T04:15:35;1.80;99.90
3940;DHT22;1984;48.312;9.244;2023-04-03T04:18:01;1.80;99.90
3940;DHT22;1984;48.312;9.244;2023-04-03T04:20:26;1.80;99.90
3940;DHT22;1984;48.312;9.244;2023-04-03T04:22:52;1.80;99.90
3940;DHT22;1984;48.312;9.244;2023-04-03T04:25:17;1.80;99.90
3940;DHT22;1984;48.312;9.244;2023-04-03T04:27:43;1.90;99.90
3940;DHT22;1984;48.312;9.244;2023-04-03T04:30:09;1.90;99.90
3940;DHT22;1984;48.312;9.244;2023-04-03T04:32:35;1.90;99.90
3940;DHT22;1984;48.312;9.244;2023-04-03T04:35:01;1.90;99.90
3940;DHT22;1984;48.312;9.244;2023-04-03T04:37:26;1.90;99.90
3940;DHT22;1984;48.312;9.244;2023-04-03T04:39:52;1.80;99.90
3940;DHT22;1984;48.312;9.244;2023-04-03T04:42:18;1.80;99.90
3940;DHT22;1984;48.312;9.244;2023-04-03T04:44:43;1.80;99.90
3940;DHT22;1984;48.312;9.244;2023-04-03T04:47:09;1.70;99.90
3940;DHT22;1984;48.312;9.244;2023-04-03T04:49:34;1.60;99.90
3940;DHT22;1984;48.312;9.244;2023-04-03T04:52:00;1.50;99.90
3940;DHT22;1984;48.312;9.244;2023-04-03T04:54:25;1.40;99.90
3940;DHT22;1984;48.312;9.244;2023-04-03T04:56:51;1.50;99.90
3940;DHT22;1984;48.312;9.244;2023-04-03T04:59:16;1.50;99.90
3940;DHT22;1984;48.312;9.244;2023-04-03T05:01:42;1.50;99.90
3940;DHT22;1984;48.312;9.244;2023-04-03T05:04:07;1.40;99.90
3940;DHT22;1984;48.312;9.244;2023-04-03T05:06:34;1.30;99.90
3940;DHT22;1984;48.312;9.244;2023-04-03T05:09:00;1.40;99.90
3940;DHT22;1984;48.312;9.244;2023-04-03T05:11:26;1.30;99.90
3940;DHT22;1984;48.312;9.244;2023-04-03T05:13:52;1.40;99.90
3940;DHT22;1984;48.312;9.244;2023-04-03T05:16:17;1.50;99.90
3940;DHT22;1984;48.312;9.244;2023-04-03T05:18:43;1.40;99.90
3940;DHT22;1984;48.312;9.244;2023-04-03T05:21:08;1.40;99.90
3940;DHT22;1984;48.312;9.244;2023-04-03T05:23:34;1.40;99.90
3940;DHT22;1984;48.312;9.244;2023-04-03T05:25:59;1.40;99.90
3940;DHT22;1984;48.312;9.244;2023-04-03T05:28:25;1.30;99.90
3940;DHT22;1984;48.312;9.244;2023-04-03T05:30:55;1.30;99.90
3940;DHT22;1984;48.312;9.244;2023-04-03T05:33:22;1.20;99.90
3940;DHT22;1984;48.312;9.244;2023-04-03T05:35:48;1.20;99.90
3940;DHT22;1984;48.312;9.244;2023-04-03T05:38:14;1.30;99.90
3940;DHT22;1984;48.312;9.244;2023-04-03T05:40:40;1.30;99.90
3940;DHT22;1984;48.312;9.244;2023-04-03T05:43:05;1.30;99.90
3940;DHT22;1984;48.312;9.244;2023-04-03T05:45:31;1.30;99.90
3940;DHT22;1984;48.312;9.244;2023-04-03T05:47:56;1.40;99.90
3940;DHT22;1984;48.312;9.244;2023-04-03T05:50:22;1.40;99.90
3940;DHT22;1984;48.312;9.244;2023-04-03T05:52:49;1.60;99.90
3940;DHT22;1984;48.312;9.244;2023-04-03T05:55:16;1.80;99.90
3940;DHT22;1984;48.312;9.244;2023-04-03T05:57:42;1.70;99.90
3940;DHT22;1984;48.312;9.244;2023-04-03T06:00:11;1.70;99.90
3940;DHT22;1984;48.312;9.244;2023-04-03T06:02:38;1.70;99.90
3940;DHT22;1984;48.312;9.244;2023-04-03T06:05:03;1.80;99.90
3940;DHT22;1984;48.312;9.244;2023-04-03T06:07:29;1.80;99.90
3940;DHT22;1984;48.312;9.244;2023-04-03T06:09:56;1.80;99.90
3940;DHT22;1984;48.312;9.244;2023-04-03T06:12:22;1.90;99.90
3940;DHT22;1984;48.312;9.244;2023-04-03T06:14:48;1.90;99.90
3940;DHT22;1984;48.312;9.244;2023-04-03T06:17:14;2.00;99.90
3940;DHT22;1984;48.312;9.244;2023-04-03T06:19:41;2.10;99.90
3940;DHT22;1984;48.312;9.244;2023-04-03T06:22:06;2.20;99.90
3940;DHT22;1984;48.312;9.244;2023-04-03T06:24:32;2.20;99.90
3940;DHT22;1984;48.312;9.244;2023-04-03T06:26:58;2.30;99.90
3940;DHT22;1984;48.312;9.244;2023-04-03T06:29:24;2.30;99.90
3940;DHT22;1984;48.312;9.244;2023-04-03T06:31:50;2.40;99.90
3940;DHT22;1984;48.312;9.244;2023-04-03T06:34:16;2.50;99.90
3940;DHT22;1984;48.312;9.244;2023-04-03T06:36:43;2.50;99.90
3940;DHT22;1984;48.312;9.244;2023-04-03T06:39:15;2.50;99.90
3940;DHT22;1984;48.312;9.244;2023-04-03T06:41:41;2.60;99.90
3940;DHT22;1984;48.312;9.244;2023-04-03T06:44:06;2.60;99.90
3940;DHT22;1984;48.312;9.244;2023-04-03T06:46:36;2.70;99.90
3940;DHT22;1984;48.312;9.244;2023-04-03T06:49:02;2.80;99.90
3940;DHT22;1984;48.312;9.244;2023-04-03T06:51:30;2.90;99.90
3940;DHT22;1984;48.312;9.244;2023-04-03T06:53:58;2.80;99.90
3940;DHT22;1984;48.312;9.244;2023-04-03T06:56:24;2.80;99.90
3940;DHT22;1984;48.312;9.244;2023-04-03T06:58:50;2.80;99.90
3940;DHT22;1984;48.312;9.244;2023-04-03T07:01:17;2.80;99.90
3940;DHT22;1984;48.312;9.244;2023-04-03T07:03:47;2.80;99.90
3940;DHT22;1984;48.312;9.244;2023-04-03T07:06:14;2.90;99.90
3940;DHT22;1984;48.312;9.244;2023-04-03T07:08:41;2.90;99.90
3940;DHT22;1984;48.312;9.244;2023-04-03T07:11:08;3.00;99.90
3940;DHT22;1984;48.312;9.244;2023-04-03T07:13:35;3.10;99.90
3940;DHT22;1984;48.312;9.244;2023-04-03T07:16:01;3.20;99.90
3940;DHT22;1984;48.312;9.244;2023-04-03T07:18:27;3.20;99.90
3940;DHT22;1984;48.312;9.244;2023-04-03T07:20:52;3.40;99.90
3940;DHT22;1984;48.312;9.244;2023-04-03T07:23:18;3.40;99.90
3940;DHT22;1984;48.312;9.244;2023-04-03T07:25:49;3.40;99.90
3940;DHT22;1984;48.312;9.244;2023-04-03T07:28:16;3.30;99.90
3940;DHT22;1984;48.312;9.244;2023-04-03T07:31:00;3.10;99.90
3940;DHT22;1984;48.312;9.244;2023-04-03T07:33:26;3.10;99.90
3940;DHT22;1984;48.312;9.244;2023-04-03T07:35:51;3.10;99.90
3940;DHT22;1984;48.312;9.244;2023-04-03T07:38:17;3.10;99.90
3940;DHT22;1984;48.312;9.244;2023-04-03T07:40:50;3.20;99.90
3940;DHT22;1984;48.312;9.244;2023-04-03T07:43:17;3.10;99.90
3940;DHT22;1984;48.312;9.244;2023-04-03T07:45:43;3.00;99.90
3940;DHT22;1984;48.312;9.244;2023-04-03T07:48:09;2.90;99.90
3940;DHT22;1984;48.312;9.244;2023-04-03T07:50:35;2.90;99.90
3940;DHT22;1984;48.312;9.244;2023-04-03T07:53:01;3.00;99.90
3940;DHT22;1984;48.312;9.244;2023-04-03T07:55:28;3.00;99.90
3940;DHT22;1984;48.312;9.244;2023-04-03T07:57:53;3.00;99.90
3940;DHT22;1984;48.312;9.244;2023-04-03T08:00:19;3.00;99.90
3940;DHT22;1984;48.312;9.244;2023-04-03T08:02:45;3.00;99.90
3940;DHT22;1984;48.312;9.244;2023-04-03T08:05:16;3.10;99.90
3940;DHT22;1984;48.312;9.244;2023-04-03T08:07:42;3.30;99.90
3940;DHT22;1984;48.312;9.244;2023-04-03T08:10:08;3.60;99.90
3940;DHT22;1984;48.312;9.244;2023-04-03T08:12:33;3.60;99.90
3940;DHT22;1984;48.312;9.244;2023-04-03T08:15:00;3.50;99.90
3940;DHT22;1984;48.312;9.244;2023-04-03T08:17:26;3.40;99.90
3940;DHT22;1984;48.312;9.244;2023-04-03T08:19:51;3.40;99.90
3940;DHT22;1984;48.312;9.244;2023-04-03T08:22:17;3.10;99.90
3940;DHT22;1984;48.312;9.244;2023-04-03T08:24:43;3.20;99.90
3940;DHT22;1984;48.312;9.244;2023-04-03T08:27:08;3.20;99.90
3940;DHT22;1984;48.312;9.244;2023-04-03T08:29:34;3.40;99.90
3940;DHT22;1984;48.312;9.244;2023-04-03T08:31:59;3.50;99.90
3940;DHT22;1984;48.312;9.244;2023-04-03T08:34:25;3.40;99.90
3940;DHT22;1984;48.312;9.244;2023-04-03T08:36:51;3.30;99.90
3940;DHT22;1984;48.312;9.244;2023-04-03T08:39:16;3.30;99.90
3940;DHT22;1984;48.312;9.244;2023-04-03T08:41:43;3.40;99.90
3940;DHT22;1984;48.312;9.244;2023-04-03T08:44:38;3.50;99.90
3940;DHT22;1984;48.312;9.244;2023-04-03T08:49:58;3.60;99.90
3940;DHT22;1984;48.312;9.244;2023-04-03T08:52:47;3.50;99.90
3940;DHT22;1984;48.312;9.244;2023-04-03T08:57:51;3.20;99.90
3940;DHT22;1984;48.312;9.244;2023-04-03T09:00:22;3.20;99.90
3940;DHT22;1984;48.312;9.244;2023-04-03T09:02:54;3.40;99.90
3940;DHT22;1984;48.312;9.244;2023-04-03T09:10:50;3.50;99.90
3940;DHT22;1984;48.312;9.244;2023-04-03T09:15:57;3.80;99.90
3940;DHT22;1984;48.312;9.244;2023-04-03T09:18:28;3.90;99.90
3940;DHT22;1984;48.312;9.244;2023-04-03T09:21:13;3.90;99.90
3940;DHT22;1984;48.312;9.244;2023-04-03T09:23:51;4.10;99.90
3940;DHT22;1984;48.312;9.244;2023-04-03T09:26:23;4.20;99.90
3940;DHT22;1984;48.312;9.244;2023-04-03T09:28:52;4.30;99.90
3940;DHT22;1984;48.312;9.244;2023-04-03T09:31:24;4.60;99.90
3940;DHT22;1984;48.312;9.244;2023-04-03T09:33:53;5.10;99.90
3940;DHT22;1984;48.312;9.244;2023-04-03T09:36:42;5.20;99.90
3940;DHT22;1984;48.312;9.244;2023-04-03T09:39:12;5.30;99.90
3940;DHT22;1984;48.312;9.244;2023-04-03T09:41:38;5.30;99.90
3940;DHT22;1984;48.312;9.244;2023-04-03T09:44:20;5.30;99.90
3940;DHT22;1984;48.312;9.244;2023-04-03T09:46:46;5.60;99.90
3940;DHT22;1984;48.312;9.244;2023-04-03T09:49:11;5.40;99.90
3940;DHT22;1984;48.312;9.244;2023-04-03T09:51:38;5.20;99.90
3940;DHT22;1984;48.312;9.244;2023-04-03T09:54:24;5.10;99.90
3940;DHT22;1984;48.312;9.244;2023-04-03T09:56:51;5.00;99.90
3940;DHT22;1984;48.312;9.244;2023-04-03T09:59:19;4.90;99.90
3940;DHT22;1984;48.312;9.244;2023-04-03T10:02:30;4.80;99.90
3940;DHT22;1984;48.312;9.244;2023-04-03T10:04:58;4.80;99.90
3940;DHT22;1984;48.312;9.244;2023-04-03T10:07:28;4.90;99.90
3940;DHT22;1984;48.312;9.244;2023-04-03T10:09:59;5.00;99.90
3940;DHT22;1984;48.312;9.244;2023-04-03T10:12:25;5.10;99.90
3940;DHT22;1984;48.312;9.244;2023-04-03T10:20:37;4.70;99.90
3940;DHT22;1984;48.312;9.244;2023-04-03T10:24:05;4.80;99.90
3940;DHT22;1984;48.312;9.244;2023-04-03T10:26:29;5.00;99.90
3940;DHT22;1984;48.312;9.244;2023-04-03T10:29:21;5.10;99.90
3940;DHT22;1984;48.312;9.244;2023-04-03T10:34:40;5.30;99.90
3940;DHT22;1984;48.312;9.244;2023-04-03T10:37:27;5.20;99.90
3940;DHT22;1984;48.312;9.244;2023-04-03T10:43:10;4.90;99.90
3940;DHT22;1984;48.312;9.244;2023-04-03T10:45:49;4.80;99.90
3940;DHT22;1984;48.312;9.244;2023-04-03T10:53:53;4.40;99.90
3940;DHT22;1984;48.312;9.244;2023-04-03T10:56:39;4.10;99.90
3940;DHT22;1984;48.312;9.244;2023-04-03T11:02:27;4.40;99.90
3940;DHT22;1984;48.312;9.244;2023-04-03T11:05:02;4.60;99.90
3940;DHT22;1984;48.312;9.244;2023-04-03T11:07:34;4.70;99.90
3940;DHT22;1984;48.312;9.244;2023-04-03T11:10:31;4.60;99.90
3940;DHT22;1984;48.312;9.244;2023-04-03T11:13:06;4.50;99.90
3940;DHT22;1984;48.312;9.244;2023-04-03T11:15:33;4.20;99.90
3940;DHT22;1984;48.312;9.244;2023-04-03T11:18:10;4.20;99.90
3940;DHT22;1984;48.312;9.244;2023-04-03T11:20:38;4.40;99.90
3940;DHT22;1984;48.312;9.244;2023-04-03T11:23:19;4.40;99.90
3940;DHT22;1984;48.312;9.244;2023-04-03T11:25:50;4.40;99.90
3940;DHT22;1984;48.312;9.244;2023-04-03T11:28:16;4.40;99.90
3940;DHT22;1984;48.312;9.244;2023-04-03T11:31:12;4.30;99.90
3940;DHT22;1984;48.312;9.244;2023-04-03T11:33:56;4.40;99.90
3940;DHT22;1984;48.312;9.244;2023-04-03T11:36:32;4.60;99.90
3940;DHT22;1984;48.312;9.244;2023-04-03T11:39:10;4.60;99.90
3940;DHT22;1984;48.312;9.244;2023-04-03T11:41:40;4.80;99.90
3940;DHT22;1984;48.312;9.244;2023-04-03T11:44:29;5.00;99.90
3940;DHT22;1984;48.312;9.244;2023-04-03T11:47:00;5.00;99.90
3940;DHT22;1984;48.312;9.244;2023-04-03T11:49:51;5.00;99.90
3940;DHT22;1984;48.312;9.244;2023-04-03T12:14:03;4.70;99.90
3940;DHT22;1984;48.312;9.244;2023-04-03T12:16:33;4.90;99.90
3940;DHT22;1984;48.312;9.244;2023-04-03T12:24:33;4.90;99.90
3940;DHT22;1984;48.312;9.244;2023-04-03T12:32:09;5.00;99.90
3940;DHT22;1984;48.312;9.244;2023-04-03T12:40:50;5.00;99.90
3940;DHT22;1984;48.312;9.244;2023-04-03T12:43:29;5.10;99.90
3940;DHT22;1984;48.312;9.244;2023-04-03T12:46:26;5.10;99.90
3940;DHT22;1984;48.312;9.244;2023-04-03T12:48:52;5.10;99.90
3940;DHT22;1984;48.312;9.244;2023-04-03T12:51:33;5.10;99.90
3940;DHT22;1984;48.312;9.244;2023-04-03T12:54:31;5.30;99.90
3940;DHT22;1984;48.312;9.244;2023-04-03T12:59:36;5.30;99.90
3940;DHT22;1984;48.312;9.244;2023-04-03T13:02:17;5.00;99.90
3940;DHT22;1984;48.312;9.244;2023-04-03T13:04:45;4.80;99.90
3940;DHT22;1984;48.312;9.244;2023-04-03T13:07:27;4.80;99.90
3940;DHT22;1984;48.312;9.244;2023-04-03T13:10:03;4.90;99.90
3940;DHT22;1984;48.312;9.244;2023-04-03T13:12:29;5.20;99.90
3940;DHT22;1984;48.312;9.244;2023-04-03T13:14:58;5.40;99.90
3940;DHT22;1984;48.312;9.244;2023-04-03T13:17:24;5.60;99.90
3940;DHT22;1984;48.312;9.244;2023-04-03T13:19:52;5.70;99.90
3940;DHT22;1984;48.312;9.244;2023-04-03T13:22:27;5.60;99.90
3940;DHT22;1984;48.312;9.244;2023-04-03T13:24:58;5.60;99.90
3940;DHT22;1984;48.312;9.244;2023-04-03T13:27:24;5.30;99.90
3940;DHT22;1984;48.312;9.244;2023-04-03T13:29:53;5.00;99.90
3940;DHT22;1984;48.312;9.244;2023-04-03T13:32:22;4.80;99.90
3940;DHT22;1984;48.312;9.244;2023-04-03T13:34:48;4.70;99.90
3940;DHT22;1984;48.312;9.244;2023-04-03T13:37:30;4.60;99.90
3940;DHT22;1984;48.312;9.244;2023-04-03T13:40:03;4.50;99.90
3940;DHT22;1984;48.312;9.244;2023-04-03T13:42:31;4.60;99.90
3940;DHT22;1984;48.312;9.244;2023-04-03T13:45:23;4.60;99.90
3940;DHT22;1984;48.312;9.244;2023-04-03T13:47:53;4.60;99.90
3940;DHT22;1984;48.312;9.244;2023-04-03T13:50:22;4.60;99.90
3940;DHT22;1984;48.312;9.244;2023-04-03T13:52:53;4.60;99.90
3940;DHT22;1984;48.312;9.244;2023-04-03T13:55:32;4.60;99.90
3940;DHT22;1984;48.312;9.244;2023-04-03T13:58:20;4.70;99.90
3940;DHT22;1984;48.312;9.244;2023-04-03T14:03:30;4.70;99.90
3940;DHT22;1984;48.312;9.244;2023-04-03T14:05:57;4.70;99.90
3940;DHT22;1984;48.312;9.244;2023-04-03T14:08:23;4.90;99.90
3940;DHT22;1984;48.312;9.244;2023-04-03T14:10:49;5.10;99.90
3940;DHT22;1984;48.312;9.244;2023-04-03T14:13:18;5.30;99.90
3940;DHT22;1984;48.312;9.244;2023-04-03T14:15:45;5.50;99.90
3940;DHT22;1984;48.312;9.244;2023-04-03T14:18:14;5.40;99.90
3940;DHT22;1984;48.312;9.244;2023-04-03T14:20:41;5.20;99.90
3940;DHT22;1984;48.312;9.244;2023-04-03T14:23:07;5.00;99.90
3940;DHT22;1984;48.312;9.244;2023-04-03T14:25:32;4.90;99.90
3940;DHT22;1984;48.312;9.244;2023-04-03T14:27:58;4.90;99.90
3940;DHT22;1984;48.312;9.244;2023-04-03T14:30:31;4.90;99.90
3940;DHT22;1984;48.312;9.244;2023-04-03T14:32:58;5.00;99.90
3940;DHT22;1984;48.312;9.244;2023-04-03T14:35:24;4.90;99.90
3940;DHT22;1984;48.312;9.244;2023-04-03T14:37:51;4.90;99.90
3940;DHT22;1984;48.312;9.244;2023-04-03T14:40:24;4.80;99.90
3940;DHT22;1984;48.312;9.244;2023-04-03T14:42:50;4.70;99.90
3940;DHT22;1984;48.312;9.244;2023-04-03T14:45:17;4.60;99.90
3940;DHT22;1984;48.312;9.244;2023-04-03T14:47:54;4.40;99.90
3940;DHT22;1984;48.312;9.244;2023-04-03T14:50:23;4.40;99.90
3940;DHT22;1984;48.312;9.244;2023-04-03T14:52:52;4.40;99.90
3940;DHT22;1984;48.312;9.244;2023-04-03T14:55:20;4.40;99.90
3940;DHT22;1984;48.312;9.244;2023-04-03T14:57:46;4.50;99.90
3940;DHT22;1984;48.312;9.244;2023-04-03T15:00:15;4.60;99.90
3940;DHT22;1984;48.312;9.244;2023-04-03T15:02:41;4.70;99.90
3940;DHT22;1984;48.312;9.244;2023-04-03T15:05:09;4.70;99.90
3940;DHT22;1984;48.312;9.244;2023-04-03T15:07:40;4.70;99.90
3940;DHT22;1984;48.312;9.244;2023-04-03T15:10:28;4.70;99.90
3940;DHT22;1984;48.312;9.244;2023-04-03T15:12:54;4.70;99.90
3940;DHT22;1984;48.312;9.244;2023-04-03T15:15:21;4.70;99.90
3940;DHT22;1984;48.312;9.244;2023-04-03T15:17:51;4.60;99.90
3940;DHT22;1984;48.312;9.244;2023-04-03T15:20:21;4.70;99.90
3940;DHT22;1984;48.312;9.244;2023-04-03T15:22:48;4.60;99.90
3940;DHT22;1984;48.312;9.244;2023-04-03T15:25:14;4.50;99.90
3940;DHT22;1984;48.312;9.244;2023-04-03T15:27:39;4.40;99.90
3940;DHT22;1984;48.312;9.244;2023-04-03T15:30:08;4.30;99.90
3940;DHT22;1984;48.312;9.244;2023-04-03T15:32:33;4.20;99.90
3940;DHT22;1984;48.312;9.244;2023-04-03T15:35:00;4.20;99.90
3940;DHT22;1984;48.312;9.244;2023-04-03T15:37:27;4.30;99.90
3940;DHT22;1984;48.312;9.244;2023-04-03T15:39:53;4.30;99.90
3940;DHT22;1984;48.312;9.244;2023-04-03T15:42:18;4.40;99.90
3940;DHT22;1984;48.312;9.244;2023-04-03T15:44:44;4.40;99.90
3940;DHT22;1984;48.312;9.244;2023-04-03T15:47:10;4.50;99.90
3940;DHT22;1984;48.312;9.244;2023-04-03T15:49:35;4.60;99.90
3940;DHT22;1984;48.312;9.244;2023-04-03T15:52:01;4.70;99.90
3940;DHT22;1984;48.312;9.244;2023-04-03T15:54:27;4.80;99.90
3940;DHT22;1984;48.312;9.244;2023-04-03T15:56:54;4.80;99.90
3940;DHT22;1984;48.312;9.244;2023-04-03T15:59:20;4.70;99.90
3940;DHT22;1984;48.312;9.244;2023-04-03T16:01:46;4.50;99.90
3940;DHT22;1984;48.312;9.244;2023-04-03T16:04:11;4.40;99.90
3940;DHT22;1984;48.312;9.244;2023-04-03T16:06:37;4.40;99.90
3940;DHT22;1984;48.312;9.244;2023-04-03T16:09:04;4.40;99.90
3940;DHT22;1984;48.312;9.244;2023-04-03T16:11:30;4.40;99.90
3940;DHT22;1984;48.312;9.244;2023-04-03T16:13:55;4.40;99.90
3940;DHT22;1984;48.312;9.244;2023-04-03T16:16:22;4.60;99.90
3940;DHT22;1984;48.312;9.244;2023-04-03T16:18:48;4.60;99.90
3940;DHT22;1984;48.312;9.244;2023-04-03T16:21:15;4.50;99.90
3940;DHT22;1984;48.312;9.244;2023-04-03T16:23:41;4.50;99.90
3940;DHT22;1984;48.312;9.244;2023-04-03T16:26:07;4.50;99.90
3940;DHT22;1984;48.312;9.244;2023-04-03T16:28:32;4.50;99.90
3940;DHT22;1984;48.312;9.244;2023-04-03T16:30:59;4.50;99.90
3940;DHT22;1984;48.312;9.244;2023-04-03T16:33:25;4.50;99.90
3940;DHT22;1984;48.312;9.244;2023-04-03T16:35:51;4.40;99.90
3940;DHT22;1984;48.312;9.244;2023-04-03T16:38:17;4.30;99.90
3940;DHT22;1984;48.312;9.244;2023-04-03T16:40:44;4.30;99.90
3940;DHT22;1984;48.312;9.244;2023-04-03T16:43:10;4.20;99.90
3940;DHT22;1984;48.312;9.244;2023-04-03T16:45:36;4.10;99.90
3940;DHT22;1984;48.312;9.244;2023-04-03T16:48:01;4.00;99.90
3940;DHT22;1984;48.312;9.244;2023-04-03T16:50:27;3.90;99.90
3940;DHT22;1984;48.312;9.244;2023-04-03T16:52:52;3.90;99.90
3940;DHT22;1984;48.312;9.244;2023-04-03T16:55:18;3.90;99.90
3940;DHT22;1984;48.312;9.244;2023-04-03T16:57:44;3.90;99.90
3940;DHT22;1984;48.312;9.244;2023-04-03T17:00:10;3.90;99.90
3940;DHT22;1984;48.312;9.244;2023-04-03T17:02:35;3.90;99.90
3940;DHT22;1984;48.312;9.244;2023-04-03T17:05:01;3.90;99.90
3940;DHT22;1984;48.312;9.244;2023-04-03T17:07:26;3.90;99.90
3940;DHT22;1984;48.312;9.244;2023-04-03T17:09:52;3.90;99.90
3940;DHT22;1984;48.312;9.244;2023-04-03T17:12:20;4.00;99.90
3940;DHT22;1984;48.312;9.244;2023-04-03T17:14:45;4.00;99.90
3940;DHT22;1984;48.312;9.244;2023-04-03T17:17:13;4.00;99.90
3940;DHT22;1984;48.312;9.244;2023-04-03T17:19:39;4.10;99.90
3940;DHT22;1984;48.312;9.244;2023-04-03T17:22:07;4.00;99.90
3940;DHT22;1984;48.312;9.244;2023-04-03T17:24:33;4.00;99.90
3940;DHT22;1984;48.312;9.244;2023-04-03T17:26:58;3.90;99.90
3940;DHT22;1984;48.312;9.244;2023-04-03T17:29:24;3.80;99.90
3940;DHT22;1984;48.312;9.244;2023-04-03T17:31:50;3.70;99.90
3940;DHT22;1984;48.312;9.244;2023-04-03T17:34:15;3.70;99.90
3940;DHT22;1984;48.312;9.244;2023-04-03T17:36:41;3.60;99.90
3940;DHT22;1984;48.312;9.244;2023-04-03T17:39:07;3.60;99.90
3940;DHT22;1984;48.312;9.244;2023-04-03T17:41:33;3.50;99.90
3940;DHT22;1984;48.312;9.244;2023-04-03T17:43:59;3.50;99.90
3940;DHT22;1984;48.312;9.244;2023-04-03T17:46:25;3.50;99.90
3940;DHT22;1984;48.312;9.244;2023-04-03T17:48:51;3.40;99.90
3940;DHT22;1984;48.312;9.244;2023-04-03T17:51:20;3.40;99.90